sensor_id;sensor_type;location;lat;lon;timestamp;P1;durP1;ratioP1;P2;durP2;ratioP2
78873;SDS011;68250;43.514;1.494;2023-07-28T00:47:38;5.07;;;1.38;;
78873;SDS011;68250;43.514;1.494;2023-07-28T00:53:29;4.77;;;1.30;;
78873;SDS011;68250;43.514;1.494;2023-07-28T00:55:58;3.90;;;1.15;;
78873;SDS011;68250;43.514;1.494;2023-07-28T01:01:33;5.57;;;1.30;;
78873;SDS011;68250;43.514;1.494;2023-07-28T01:04:05;3.85;;;1.20;;
78873;SDS011;68250;43.514;1.494;2023-07-28T01:19:06;4.35;;;0.95;;
78873;SDS011;68250;43.514;1.494;2023-07-28T01:30:57;3.22;;;1.10;;
78873;SDS011;68250;43.514;1.494;2023-07-28T01:33:43;3.97;;;1.17;;
78873;SDS011;68250;43.514;1.494;2023-07-28T01:39:16;3.67;;;1.10;;
78873;SDS011;68250;43.514;1.494;2023-07-28T01:41:41;4.00;;;1.27;;
78873;SDS011;68250;43.514;1.494;2023-07-28T01:54:07;4.57;;;1.20;;
78873;SDS011;68250;43.514;1.494;2023-07-28T01:59:31;3.75;;;1.40;;
78873;SDS011;68250;43.514;1.494;2023-07-28T02:01:56;4.57;;;1.57;;
78873;SDS011;68250;43.514;1.494;2023-07-28T02:17:58;5.80;;;1.42;;
78873;SDS011;68250;43.514;1.494;2023-07-28T02:36:44;4.43;;;1.10;;
78873;SDS011;68250;43.514;1.494;2023-07-28T02:39:16;5.32;;;1.27;;
78873;SDS011;68250;43.514;1.494;2023-07-28T02:44:53;4.50;;;1.15;;
78873;SDS011;68250;43.514;1.494;2023-07-28T02:51:16;5.03;;;1.20;;
78873;SDS011;68250;43.514;1.494;2023-07-28T02:53:45;4.82;;;1.20;;
78873;SDS011;68250;43.514;1.494;2023-07-28T02:56:41;4.53;;;1.40;;
78873;SDS011;68250;43.514;1.494;2023-07-28T02:59:07;4.70;;;1.40;;
78873;SDS011;68250;43.514;1.494;2023-07-28T03:11:16;5.65;;;1.55;;
78873;SDS011;68250;43.514;1.494;2023-07-28T03:16:55;4.95;;;1.60;;
78873;SDS011;68250;43.514;1.494;2023-07-28T03:19:26;5.70;;;1.60;;
78873;SDS011;68250;43.514;1.494;2023-07-28T03:25:00;4.68;;;1.63;;
78873;SDS011;68250;43.514;1.494;2023-07-28T03:30:37;5.20;;;1.75;;
78873;SDS011;68250;43.514;1.494;2023-07-28T03:33:12;3.87;;;1.47;;
78873;SDS011;68250;43.514;1.494;2023-07-28T03:42:00;4.70;;;1.50;;
78873;SDS011;68250;43.514;1.494;2023-07-28T03:44:30;7.35;;;2.00;;
78873;SDS011;68250;43.514;1.494;2023-07-28T04:04:59;6.68;;;1.90;;
78873;SDS011;68250;43.514;1.494;2023-07-28T04:07:27;4.93;;;2.10;;
78873;SDS011;68250;43.514;1.494;2023-07-28T04:10:00;4.70;;;2.23;;
78873;SDS011;68250;43.514;1.494;2023-07-28T04:16:05;4.95;;;2.15;;
78873;SDS011;68250;43.514;1.494;2023-07-28T04:25:09;4.97;;;2.00;;
78873;SDS011;68250;43.514;1.494;2023-07-28T04:31:19;8.60;;;2.50;;
78873;SDS011;68250;43.514;1.494;2023-07-28T04:40:20;5.83;;;2.20;;
78873;SDS011;68250;43.514;1.494;2023-07-28T04:46:29;5.55;;;2.17;;
78873;SDS011;68250;43.514;1.494;2023-07-28T04:49:05;4.67;;;1.80;;
78873;SDS011;68250;43.514;1.494;2023-07-28T04:54:48;7.47;;;2.10;;
78873;SDS011;68250;43.514;1.494;2023-07-28T04:57:32;4.32;;;2.10;;
78873;SDS011;68250;43.514;1.494;2023-07-28T05:31:22;5.65;;;2.40;;
78873;SDS011;68250;43.514;1.494;2023-07-28T05:37:18;5.95;;;2.10;;
78873;SDS011;68250;43.514;1.494;2023-07-28T05:39:53;7.60;;;2.80;;
78873;SDS011;68250;43.514;1.494;2023-07-28T05:42:31;6.43;;;2.40;;
78873;SDS011;68250;43.514;1.494;2023-07-28T05:48:24;5.17;;;2.00;;
78873;SDS011;68250;43.514;1.494;2023-07-28T05:50:50;5.30;;;2.53;;
78873;SDS011;68250;43.514;1.494;2023-07-28T05:57:30;5.55;;;2.30;;
78873;SDS011;68250;43.514;1.494;2023-07-28T06:00:11;5.78;;;2.40;;
78873;SDS011;68250;43.514;1.494;2023-07-28T06:09:03;5.03;;;2.20;;
78873;SDS011;68250;43.514;1.494;2023-07-28T06:18:22;5.03;;;2.10;;
78873;SDS011;68250;43.514;1.494;2023-07-28T06:27:07;5.72;;;1.80;;
78873;SDS011;68250;43.514;1.494;2023-07-28T06:36:01;4.75;;;2.20;;
78873;SDS011;68250;43.514;1.494;2023-07-28T06:41:20;6.95;;;2.38;;
78873;SDS011;68250;43.514;1.494;2023-07-28T06:43:46;5.35;;;2.05;;
78873;SDS011;68250;43.514;1.494;2023-07-28T06:46:13;5.17;;;2.20;;
78873;SDS011;68250;43.514;1.494;2023-07-28T06:48:39;4.47;;;1.85;;
78873;SDS011;68250;43.514;1.494;2023-07-28T06:53:57;7.18;;;2.40;;
78873;SDS011;68250;43.514;1.494;2023-07-28T06:59:20;5.07;;;2.47;;
78873;SDS011;68250;43.514;1.494;2023-07-28T07:08:00;8.20;;;2.30;;
78873;SDS011;68250;43.514;1.494;2023-07-28T07:10:28;5.10;;;2.28;;
78873;SDS011;68250;43.514;1.494;2023-07-28T07:12:57;9.10;;;3.10;;
78873;SDS011;68250;43.514;1.494;2023-07-28T07:15:26;8.23;;;3.55;;
78873;SDS011;68250;43.514;1.494;2023-07-28T07:21:01;5.82;;;2.90;;
78873;SDS011;68250;43.514;1.494;2023-07-28T07:29:39;6.78;;;2.30;;
78873;SDS011;68250;43.514;1.494;2023-07-28T07:32:07;4.80;;;2.53;;
78873;SDS011;68250;43.514;1.494;2023-07-28T07:37:54;7.63;;;2.78;;
78873;SDS011;68250;43.514;1.494;2023-07-28T07:40:20;5.03;;;2.50;;
78873;SDS011;68250;43.514;1.494;2023-07-28T07:43:01;5.80;;;2.35;;
78873;SDS011;68250;43.514;1.494;2023-07-28T07:45:29;6.00;;;2.50;;
78873;SDS011;68250;43.514;1.494;2023-07-28T07:50:45;6.38;;;2.80;;
78873;SDS011;68250;43.514;1.494;2023-07-28T07:53:11;7.63;;;2.92;;
78873;SDS011;68250;43.514;1.494;2023-07-28T08:08:07;6.47;;;2.72;;
78873;SDS011;68250;43.514;1.494;2023-07-28T08:10:33;4.93;;;2.50;;
78873;SDS011;68250;43.514;1.494;2023-07-28T08:13:04;5.20;;;2.40;;
78873;SDS011;68250;43.514;1.494;2023-07-28T08:15:29;6.57;;;2.50;;
78873;SDS011;68250;43.514;1.494;2023-07-28T08:17:55;5.97;;;2.63;;
78873;SDS011;68250;43.514;1.494;2023-07-28T08:20:21;9.00;;;2.67;;
78873;SDS011;68250;43.514;1.494;2023-07-28T08:25:38;6.72;;;2.85;;
78873;SDS011;68250;43.514;1.494;2023-07-28T08:31:32;5.70;;;2.67;;
78873;SDS011;68250;43.514;1.494;2023-07-28T08:33:57;6.65;;;2.63;;
78873;SDS011;68250;43.514;1.494;2023-07-28T08:36:25;6.23;;;3.00;;
78873;SDS011;68250;43.514;1.494;2023-07-28T08:42:13;6.10;;;2.60;;
78873;SDS011;68250;43.514;1.494;2023-07-28T08:44:41;4.32;;;2.40;;
78873;SDS011;68250;43.514;1.494;2023-07-28T08:50:34;7.45;;;3.08;;
78873;SDS011;68250;43.514;1.494;2023-07-28T08:56:24;6.95;;;2.70;;
78873;SDS011;68250;43.514;1.494;2023-07-28T08:58:49;5.22;;;2.63;;
78873;SDS011;68250;43.514;1.494;2023-07-28T09:01:29;7.83;;;2.73;;
78873;SDS011;68250;43.514;1.494;2023-07-28T09:10:00;5.67;;;2.63;;
78873;SDS011;68250;43.514;1.494;2023-07-28T09:12:26;5.63;;;2.60;;
78873;SDS011;68250;43.514;1.494;2023-07-28T09:15:00;7.80;;;2.87;;
78873;SDS011;68250;43.514;1.494;2023-07-28T09:17:26;6.00;;;3.00;;
78873;SDS011;68250;43.514;1.494;2023-07-28T09:19:56;6.63;;;2.60;;
78873;SDS011;68250;43.514;1.494;2023-07-28T09:22:22;8.48;;;2.85;;
78873;SDS011;68250;43.514;1.494;2023-07-28T09:24:48;5.43;;;2.78;;
78873;SDS011;68250;43.514;1.494;2023-07-28T09:27:25;4.60;;;2.37;;
78873;SDS011;68250;43.514;1.494;2023-07-28T09:29:51;9.90;;;3.20;;
78873;SDS011;68250;43.514;1.494;2023-07-28T09:32:32;5.90;;;2.67;;
78873;SDS011;68250;43.514;1.494;2023-07-28T09:35:08;5.00;;;2.70;;
78873;SDS011;68250;43.514;1.494;2023-07-28T09:37:39;6.28;;;2.92;;
78873;SDS011;68250;43.514;1.494;2023-07-28T09:40:07;4.90;;;2.60;;
78873;SDS011;68250;43.514;1.494;2023-07-28T09:42:36;5.32;;;2.60;;
78873;SDS011;68250;43.514;1.494;2023-07-28T09:45:06;5.70;;;3.00;;
78873;SDS011;68250;43.514;1.494;2023-07-28T09:47:33;6.55;;;2.90;;
78873;SDS011;68250;43.514;1.494;2023-07-28T09:50:06;5.50;;;2.70;;
78873;SDS011;68250;43.514;1.494;2023-07-28T09:52:35;6.40;;;3.00;;
78873;SDS011;68250;43.514;1.494;2023-07-28T09:55:07;6.88;;;2.60;;
78873;SDS011;68250;43.514;1.494;2023-07-28T09:57:57;7.40;;;2.78;;
78873;SDS011;68250;43.514;1.494;2023-07-28T10:00:24;5.43;;;2.75;;
78873;SDS011;68250;43.514;1.494;2023-07-28T10:02:50;7.75;;;3.13;;
78873;SDS011;68250;43.514;1.494;2023-07-28T10:05:16;5.57;;;3.07;;
78873;SDS011;68250;43.514;1.494;2023-07-28T10:07:45;6.23;;;2.53;;
78873;SDS011;68250;43.514;1.494;2023-07-28T10:10:11;7.25;;;2.63;;
78873;SDS011;68250;43.514;1.494;2023-07-28T10:15:11;7.15;;;2.60;;
78873;SDS011;68250;43.514;1.494;2023-07-28T10:17:49;8.27;;;2.83;;
78873;SDS011;68250;43.514;1.494;2023-07-28T10:20:36;4.50;;;2.53;;
78873;SDS011;68250;43.514;1.494;2023-07-28T10:23:14;5.50;;;2.70;;
78873;SDS011;68250;43.514;1.494;2023-07-28T10:25:42;6.68;;;2.90;;
78873;SDS011;68250;43.514;1.494;2023-07-28T10:28:26;5.70;;;2.83;;
78873;SDS011;68250;43.514;1.494;2023-07-28T10:31:06;8.45;;;2.70;;
78873;SDS011;68250;43.514;1.494;2023-07-28T10:33:39;7.30;;;3.00;;
78873;SDS011;68250;43.514;1.494;2023-07-28T10:36:32;5.20;;;3.00;;
78873;SDS011;68250;43.514;1.494;2023-07-28T10:39:00;6.18;;;3.00;;
78873;SDS011;68250;43.514;1.494;2023-07-28T10:41:26;6.30;;;2.83;;
78873;SDS011;68250;43.514;1.494;2023-07-28T10:43:52;7.67;;;2.80;;
78873;SDS011;68250;43.514;1.494;2023-07-28T10:46:18;5.78;;;2.63;;
78873;SDS011;68250;43.514;1.494;2023-07-28T10:48:46;5.30;;;2.90;;
78873;SDS011;68250;43.514;1.494;2023-07-28T10:51:20;6.75;;;2.70;;
78873;SDS011;68250;43.514;1.494;2023-07-28T10:53:49;5.50;;;3.05;;
78873;SDS011;68250;43.514;1.494;2023-07-28T10:56:15;7.85;;;3.15;;
78873;SDS011;68250;43.514;1.494;2023-07-28T10:58:41;5.90;;;3.00;;
78873;SDS011;68250;43.514;1.494;2023-07-28T11:01:07;6.20;;;3.05;;
78873;SDS011;68250;43.514;1.494;2023-07-28T11:03:32;5.50;;;2.60;;
78873;SDS011;68250;43.514;1.494;2023-07-28T11:05:58;6.75;;;3.00;;
78873;SDS011;68250;43.514;1.494;2023-07-28T11:08:24;7.33;;;3.00;;
78873;SDS011;68250;43.514;1.494;2023-07-28T11:10:50;6.07;;;3.10;;
78873;SDS011;68250;43.514;1.494;2023-07-28T11:13:15;5.97;;;3.20;;
78873;SDS011;68250;43.514;1.494;2023-07-28T11:15:41;4.50;;;2.80;;
78873;SDS011;68250;43.514;1.494;2023-07-28T11:18:09;8.23;;;2.70;;
78873;SDS011;68250;43.514;1.494;2023-07-28T11:20:35;6.60;;;3.15;;
78873;SDS011;68250;43.514;1.494;2023-07-28T11:23:01;6.20;;;3.20;;
78873;SDS011;68250;43.514;1.494;2023-07-28T11:25:32;9.97;;;3.60;;
78873;SDS011;68250;43.514;1.494;2023-07-28T11:28:02;6.10;;;3.20;;
78873;SDS011;68250;43.514;1.494;2023-07-28T11:30:30;6.10;;;2.80;;
78873;SDS011;68250;43.514;1.494;2023-07-28T11:36:00;8.38;;;3.13;;
78873;SDS011;68250;43.514;1.494;2023-07-28T11:38:25;5.50;;;3.20;;
78873;SDS011;68250;43.514;1.494;2023-07-28T11:40:58;5.47;;;3.20;;
78873;SDS011;68250;43.514;1.494;2023-07-28T11:43:33;6.03;;;2.70;;
78873;SDS011;68250;43.514;1.494;2023-07-28T11:45:59;5.28;;;3.05;;
78873;SDS011;68250;43.514;1.494;2023-07-28T11:48:37;6.05;;;3.13;;
78873;SDS011;68250;43.514;1.494;2023-07-28T11:51:02;5.93;;;2.97;;
78873;SDS011;68250;43.514;1.494;2023-07-28T11:53:28;6.87;;;3.07;;
78873;SDS011;68250;43.514;1.494;2023-07-28T11:55:58;5.82;;;3.28;;
78873;SDS011;68250;43.514;1.494;2023-07-28T11:58:23;5.13;;;2.97;;
78873;SDS011;68250;43.514;1.494;2023-07-28T12:04:39;5.40;;;3.00;;
78873;SDS011;68250;43.514;1.494;2023-07-28T12:07:15;5.90;;;3.28;;
78873;SDS011;68250;43.514;1.494;2023-07-28T12:13:14;5.25;;;2.92;;
78873;SDS011;68250;43.514;1.494;2023-07-28T12:19:05;5.28;;;3.15;;
78873;SDS011;68250;43.514;1.494;2023-07-28T12:21:33;7.68;;;2.95;;
78873;SDS011;68250;43.514;1.494;2023-07-28T12:27:01;5.32;;;3.25;;
78873;SDS011;68250;43.514;1.494;2023-07-28T12:29:27;5.40;;;2.70;;
78873;SDS011;68250;43.514;1.494;2023-07-28T12:32:03;6.38;;;3.10;;
78873;SDS011;68250;43.514;1.494;2023-07-28T12:37:41;7.93;;;2.90;;
78873;SDS011;68250;43.514;1.494;2023-07-28T12:47:08;8.25;;;3.70;;
78873;SDS011;68250;43.514;1.494;2023-07-28T12:49:33;5.18;;;2.72;;
78873;SDS011;68250;43.514;1.494;2023-07-28T12:52:05;5.30;;;3.50;;
78873;SDS011;68250;43.514;1.494;2023-07-28T12:54:40;6.55;;;3.10;;
78873;SDS011;68250;43.514;1.494;2023-07-28T12:57:08;5.30;;;3.00;;
78873;SDS011;68250;43.514;1.494;2023-07-28T13:02:59;6.55;;;3.50;;
78873;SDS011;68250;43.514;1.494;2023-07-28T13:15:26;5.70;;;3.25;;
78873;SDS011;68250;43.514;1.494;2023-07-28T13:21:03;6.28;;;3.50;;
78873;SDS011;68250;43.514;1.494;2023-07-28T13:26:53;6.03;;;3.08;;
78873;SDS011;68250;43.514;1.494;2023-07-28T13:29:18;5.67;;;3.50;;
78873;SDS011;68250;43.514;1.494;2023-07-28T13:31:57;6.10;;;3.22;;
78873;SDS011;68250;43.514;1.494;2023-07-28T13:34:29;6.13;;;2.90;;
78873;SDS011;68250;43.514;1.494;2023-07-28T13:36:55;6.68;;;3.45;;
78873;SDS011;68250;43.514;1.494;2023-07-28T13:39:24;8.02;;;2.90;;
78873;SDS011;68250;43.514;1.494;2023-07-28T13:42:17;5.50;;;3.30;;
78873;SDS011;68250;43.514;1.494;2023-07-28T13:44:44;5.57;;;3.28;;
78873;SDS011;68250;43.514;1.494;2023-07-28T13:50:38;6.50;;;3.33;;
78873;SDS011;68250;43.514;1.494;2023-07-28T13:53:04;6.40;;;2.97;;
78873;SDS011;68250;43.514;1.494;2023-07-28T13:58:38;6.73;;;3.20;;
78873;SDS011;68250;43.514;1.494;2023-07-28T14:01:15;6.47;;;3.25;;
78873;SDS011;68250;43.514;1.494;2023-07-28T14:09:42;6.75;;;3.40;;
78873;SDS011;68250;43.514;1.494;2023-07-28T14:12:08;5.87;;;3.33;;
78873;SDS011;68250;43.514;1.494;2023-07-28T14:14:34;10.17;;;3.40;;
78873;SDS011;68250;43.514;1.494;2023-07-28T14:16:59;5.25;;;3.40;;
78873;SDS011;68250;43.514;1.494;2023-07-28T14:19:25;5.33;;;3.03;;
78873;SDS011;68250;43.514;1.494;2023-07-28T14:21:51;5.88;;;3.40;;
78873;SDS011;68250;43.514;1.494;2023-07-28T14:24:16;6.00;;;3.00;;
78873;SDS011;68250;43.514;1.494;2023-07-28T14:26:42;6.47;;;3.50;;
78873;SDS011;68250;43.514;1.494;2023-07-28T14:29:08;6.30;;;3.27;;
78873;SDS011;68250;43.514;1.494;2023-07-28T14:31:33;6.32;;;3.50;;
78873;SDS011;68250;43.514;1.494;2023-07-28T14:33:59;6.47;;;2.90;;
78873;SDS011;68250;43.514;1.494;2023-07-28T14:36:24;5.32;;;3.60;;
78873;SDS011;68250;43.514;1.494;2023-07-28T14:38:50;7.17;;;3.50;;
78873;SDS011;68250;43.514;1.494;2023-07-28T14:41:16;8.07;;;3.30;;
78873;SDS011;68250;43.514;1.494;2023-07-28T14:43:41;5.60;;;3.10;;
78873;SDS011;68250;43.514;1.494;2023-07-28T14:46:07;8.10;;;3.33;;
78873;SDS011;68250;43.514;1.494;2023-07-28T14:48:33;6.63;;;3.80;;
78873;SDS011;68250;43.514;1.494;2023-07-28T14:51:00;7.03;;;3.60;;
78873;SDS011;68250;43.514;1.494;2023-07-28T14:55:59;7.27;;;3.37;;
78873;SDS011;68250;43.514;1.494;2023-07-28T14:58:25;5.50;;;3.40;;
78873;SDS011;68250;43.514;1.494;2023-07-28T15:00:52;5.15;;;3.30;;
78873;SDS011;68250;43.514;1.494;2023-07-28T15:03:17;8.43;;;3.77;;
78873;SDS011;68250;43.514;1.494;2023-07-28T15:05:43;7.22;;;2.92;;
78873;SDS011;68250;43.514;1.494;2023-07-28T15:08:09;5.77;;;2.93;;
78873;SDS011;68250;43.514;1.494;2023-07-28T15:10:34;7.73;;;3.03;;
78873;SDS011;68250;43.514;1.494;2023-07-28T15:13:00;9.53;;;3.20;;
78873;SDS011;68250;43.514;1.494;2023-07-28T15:15:25;5.60;;;3.20;;
78873;SDS011;68250;43.514;1.494;2023-07-28T15:17:51;6.20;;;3.45;;
78873;SDS011;68250;43.514;1.494;2023-07-28T15:20:17;7.33;;;3.37;;
78873;SDS011;68250;43.514;1.494;2023-07-28T15:22:45;8.05;;;3.60;;
78873;SDS011;68250;43.514;1.494;2023-07-28T15:25:12;5.50;;;3.00;;
78873;SDS011;68250;43.514;1.494;2023-07-28T15:27:40;6.55;;;2.90;;
78873;SDS011;68250;43.514;1.494;2023-07-28T15:30:06;6.57;;;3.07;;
78873;SDS011;68250;43.514;1.494;2023-07-28T15:32:32;5.38;;;2.95;;
78873;SDS011;68250;43.514;1.494;2023-07-28T15:34:58;6.23;;;3.20;;
78873;SDS011;68250;43.514;1.494;2023-07-28T15:37:23;5.57;;;2.83;;
78873;SDS011;68250;43.514;1.494;2023-07-28T15:39:49;7.87;;;3.30;;
78873;SDS011;68250;43.514;1.494;2023-07-28T15:42:14;8.18;;;3.20;;
78873;SDS011;68250;43.514;1.494;2023-07-28T15:44:43;6.72;;;3.05;;
78873;SDS011;68250;43.514;1.494;2023-07-28T15:47:08;5.33;;;3.30;;
78873;SDS011;68250;43.514;1.494;2023-07-28T15:49:34;5.30;;;3.60;;
78873;SDS011;68250;43.514;1.494;2023-07-28T15:52:00;5.60;;;3.03;;
78873;SDS011;68250;43.514;1.494;2023-07-28T15:54:25;6.70;;;3.30;;
78873;SDS011;68250;43.514;1.494;2023-07-28T15:56:51;4.40;;;2.70;;
78873;SDS011;68250;43.514;1.494;2023-07-28T15:59:16;7.13;;;2.87;;
78873;SDS011;68250;43.514;1.494;2023-07-28T16:01:42;4.23;;;2.70;;
78873;SDS011;68250;43.514;1.494;2023-07-28T16:04:08;5.80;;;3.30;;
78873;SDS011;68250;43.514;1.494;2023-07-28T16:06:33;5.80;;;2.73;;
78873;SDS011;68250;43.514;1.494;2023-07-28T16:08:59;5.25;;;2.92;;
78873;SDS011;68250;43.514;1.494;2023-07-28T16:11:24;7.10;;;3.40;;
78873;SDS011;68250;43.514;1.494;2023-07-28T16:13:50;5.43;;;3.03;;
78873;SDS011;68250;43.514;1.494;2023-07-28T16:16:16;6.47;;;3.13;;
78873;SDS011;68250;43.514;1.494;2023-07-28T16:18:41;6.45;;;3.10;;
78873;SDS011;68250;43.514;1.494;2023-07-28T16:21:07;5.83;;;3.07;;
78873;SDS011;68250;43.514;1.494;2023-07-28T16:23:33;4.73;;;2.90;;
78873;SDS011;68250;43.514;1.494;2023-07-28T16:25:58;5.22;;;3.03;;
78873;SDS011;68250;43.514;1.494;2023-07-28T16:28:24;8.17;;;3.53;;
78873;SDS011;68250;43.514;1.494;2023-07-28T16:30:49;5.53;;;3.40;;
78873;SDS011;68250;43.514;1.494;2023-07-28T16:33:15;6.33;;;2.90;;
78873;SDS011;68250;43.514;1.494;2023-07-28T16:35:41;5.97;;;3.20;;
78873;SDS011;68250;43.514;1.494;2023-07-28T16:38:06;5.97;;;3.27;;
78873;SDS011;68250;43.514;1.494;2023-07-28T16:40:32;5.18;;;3.20;;
78873;SDS011;68250;43.514;1.494;2023-07-28T16:42:58;4.97;;;3.27;;
78873;SDS011;68250;43.514;1.494;2023-07-28T16:45:24;5.93;;;3.03;;
78873;SDS011;68250;43.514;1.494;2023-07-28T16:47:49;5.33;;;3.20;;
78873;SDS011;68250;43.514;1.494;2023-07-28T16:50:15;5.70;;;2.90;;
78873;SDS011;68250;43.514;1.494;2023-07-28T16:52:40;7.25;;;3.40;;
78873;SDS011;68250;43.514;1.494;2023-07-28T16:55:06;6.03;;;3.13;;
78873;SDS011;68250;43.514;1.494;2023-07-28T16:57:32;6.95;;;3.05;;
78873;SDS011;68250;43.514;1.494;2023-07-28T16:59:57;5.87;;;2.80;;
78873;SDS011;68250;43.514;1.494;2023-07-28T17:02:23;5.80;;;3.67;;
78873;SDS011;68250;43.514;1.494;2023-07-28T17:04:49;4.67;;;2.77;;
78873;SDS011;68250;43.514;1.494;2023-07-28T17:07:14;5.43;;;3.07;;
78873;SDS011;68250;43.514;1.494;2023-07-28T17:09:40;7.47;;;3.43;;
78873;SDS011;68250;43.514;1.494;2023-07-28T17:12:06;5.18;;;3.13;;
78873;SDS011;68250;43.514;1.494;2023-07-28T17:14:32;5.80;;;3.20;;
78873;SDS011;68250;43.514;1.494;2023-07-28T17:16:57;5.75;;;3.03;;
78873;SDS011;68250;43.514;1.494;2023-07-28T17:19:23;5.47;;;3.20;;
78873;SDS011;68250;43.514;1.494;2023-07-28T17:21:48;5.82;;;3.20;;
78873;SDS011;68250;43.514;1.494;2023-07-28T17:24:14;6.00;;;3.00;;
78873;SDS011;68250;43.514;1.494;2023-07-28T17:26:43;5.75;;;3.00;;
78873;SDS011;68250;43.514;1.494;2023-07-28T17:29:08;6.37;;;3.10;;
78873;SDS011;68250;43.514;1.494;2023-07-28T17:31:34;8.90;;;4.20;;
78873;SDS011;68250;43.514;1.494;2023-07-28T17:33:59;6.00;;;3.53;;
78873;SDS011;68250;43.514;1.494;2023-07-28T17:36:25;6.63;;;3.40;;
78873;SDS011;68250;43.514;1.494;2023-07-28T17:38:51;5.70;;;3.20;;
78873;SDS011;68250;43.514;1.494;2023-07-28T17:41:16;5.70;;;3.30;;
78873;SDS011;68250;43.514;1.494;2023-07-28T17:43:42;6.82;;;3.40;;
78873;SDS011;68250;43.514;1.494;2023-07-28T17:46:11;4.97;;;2.67;;
78873;SDS011;68250;43.514;1.494;2023-07-28T17:48:36;5.40;;;3.07;;
78873;SDS011;68250;43.514;1.494;2023-07-28T17:51:03;5.43;;;3.75;;
78873;SDS011;68250;43.514;1.494;2023-07-28T17:53:29;7.35;;;3.35;;
78873;SDS011;68250;43.514;1.494;2023-07-28T17:55:58;4.30;;;2.80;;
78873;SDS011;68250;43.514;1.494;2023-07-28T17:58:24;5.25;;;3.78;;
78873;SDS011;68250;43.514;1.494;2023-07-28T18:00:49;5.95;;;2.97;;
78873;SDS011;68250;43.514;1.494;2023-07-28T18:03:16;7.30;;;3.17;;
78873;SDS011;68250;43.514;1.494;2023-07-28T18:05:41;5.05;;;3.08;;
78873;SDS011;68250;43.514;1.494;2023-07-28T18:08:07;5.72;;;2.92;;
78873;SDS011;68250;43.514;1.494;2023-07-28T18:10:39;5.17;;;3.07;;
78873;SDS011;68250;43.514;1.494;2023-07-28T18:13:05;5.03;;;3.17;;
78873;SDS011;68250;43.514;1.494;2023-07-28T18:15:32;5.72;;;3.40;;
78873;SDS011;68250;43.514;1.494;2023-07-28T18:17:58;4.70;;;2.97;;
78873;SDS011;68250;43.514;1.494;2023-07-28T18:20:24;6.00;;;2.63;;
78873;SDS011;68250;43.514;1.494;2023-07-28T18:22:50;6.15;;;2.97;;
78873;SDS011;68250;43.514;1.494;2023-07-28T18:25:16;5.43;;;2.70;;
78873;SDS011;68250;43.514;1.494;2023-07-28T18:27:41;5.40;;;3.22;;
78873;SDS011;68250;43.514;1.494;2023-07-28T18:30:07;4.67;;;2.87;;
78873;SDS011;68250;43.514;1.494;2023-07-28T18:32:33;4.88;;;3.20;;
78873;SDS011;68250;43.514;1.494;2023-07-28T18:34:59;5.18;;;3.00;;
78873;SDS011;68250;43.514;1.494;2023-07-28T18:37:25;5.03;;;3.20;;
78873;SDS011;68250;43.514;1.494;2023-07-28T18:39:51;5.78;;;3.22;;
78873;SDS011;68250;43.514;1.494;2023-07-28T18:42:16;5.67;;;3.23;;
78873;SDS011;68250;43.514;1.494;2023-07-28T18:44:42;5.75;;;3.55;;
78873;SDS011;68250;43.514;1.494;2023-07-28T18:47:08;7.10;;;3.00;;
78873;SDS011;68250;43.514;1.494;2023-07-28T18:49:33;5.60;;;3.60;;
78873;SDS011;68250;43.514;1.494;2023-07-28T18:51:59;5.82;;;3.38;;
78873;SDS011;68250;43.514;1.494;2023-07-28T18:54:25;6.07;;;3.30;;
78873;SDS011;68250;43.514;1.494;2023-07-28T18:56:50;6.30;;;3.60;;
78873;SDS011;68250;43.514;1.494;2023-07-28T18:59:17;6.00;;;3.60;;
78873;SDS011;68250;43.514;1.494;2023-07-28T19:01:43;7.07;;;3.53;;
78873;SDS011;68250;43.514;1.494;2023-07-28T19:04:09;5.20;;;3.50;;
78873;SDS011;68250;43.514;1.494;2023-07-28T19:06:34;9.17;;;3.37;;
78873;SDS011;68250;43.514;1.494;2023-07-28T19:09:00;6.28;;;2.95;;
78873;SDS011;68250;43.514;1.494;2023-07-28T19:11:26;6.03;;;3.50;;
78873;SDS011;68250;43.514;1.494;2023-07-28T19:13:51;7.90;;;3.43;;
78873;SDS011;68250;43.514;1.494;2023-07-28T19:16:17;5.88;;;3.40;;
78873;SDS011;68250;43.514;1.494;2023-07-28T19:18:43;4.83;;;3.27;;
78873;SDS011;68250;43.514;1.494;2023-07-28T19:21:08;5.85;;;3.28;;
78873;SDS011;68250;43.514;1.494;2023-07-28T19:23:34;8.83;;;3.60;;
78873;SDS011;68250;43.514;1.494;2023-07-28T19:26:00;7.55;;;3.70;;
78873;SDS011;68250;43.514;1.494;2023-07-28T19:28:25;5.40;;;3.30;;
78873;SDS011;68250;43.514;1.494;2023-07-28T19:30:51;6.25;;;3.30;;
78873;SDS011;68250;43.514;1.494;2023-07-28T19:33:18;5.23;;;3.47;;
78873;SDS011;68250;43.514;1.494;2023-07-28T19:35:43;5.68;;;3.60;;
78873;SDS011;68250;43.514;1.494;2023-07-28T19:38:11;5.65;;;3.40;;
78873;SDS011;68250;43.514;1.494;2023-07-28T19:40:37;5.17;;;3.40;;
78873;SDS011;68250;43.514;1.494;2023-07-28T19:43:03;6.30;;;3.50;;
78873;SDS011;68250;43.514;1.494;2023-07-28T19:45:29;5.93;;;3.50;;
78873;SDS011;68250;43.514;1.494;2023-07-28T19:47:54;5.20;;;3.40;;
78873;SDS011;68250;43.514;1.494;2023-07-28T19:50:20;5.13;;;3.20;;
78873;SDS011;68250;43.514;1.494;2023-07-28T19:52:46;5.00;;;3.10;;
78873;SDS011;68250;43.514;1.494;2023-07-28T19:55:12;7.00;;;3.35;;
78873;SDS011;68250;43.514;1.494;2023-07-28T19:57:37;8.10;;;3.10;;
78873;SDS011;68250;43.514;1.494;2023-07-28T20:00:03;6.25;;;3.33;;
78873;SDS011;68250;43.514;1.494;2023-07-28T20:02:29;6.18;;;3.70;;
78873;SDS011;68250;43.514;1.494;2023-07-28T20:04:55;6.93;;;3.53;;
78873;SDS011;68250;43.514;1.494;2023-07-28T20:07:21;6.03;;;3.60;;
78873;SDS011;68250;43.514;1.494;2023-07-28T20:09:48;8.85;;;3.70;;
78873;SDS011;68250;43.514;1.494;2023-07-28T20:12:14;6.65;;;3.63;;
78873;SDS011;68250;43.514;1.494;2023-07-28T20:14:39;7.40;;;3.80;;
78873;SDS011;68250;43.514;1.494;2023-07-28T20:17:05;7.88;;;3.88;;
78873;SDS011;68250;43.514;1.494;2023-07-28T20:19:31;5.37;;;3.10;;
78873;SDS011;68250;43.514;1.494;2023-07-28T20:21:57;6.85;;;3.47;;
78873;SDS011;68250;43.514;1.494;2023-07-28T20:24:23;6.40;;;3.67;;
78873;SDS011;68250;43.514;1.494;2023-07-28T20:26:48;5.43;;;3.10;;
78873;SDS011;68250;43.514;1.494;2023-07-28T20:29:14;8.23;;;3.37;;
78873;SDS011;68250;43.514;1.494;2023-07-28T20:31:39;6.57;;;3.20;;
78873;SDS011;68250;43.514;1.494;2023-07-28T20:34:05;7.57;;;3.27;;
78873;SDS011;68250;43.514;1.494;2023-07-28T20:36:34;7.32;;;3.15;;
78873;SDS011;68250;43.514;1.494;2023-07-28T20:39:00;5.70;;;3.33;;
78873;SDS011;68250;43.514;1.494;2023-07-28T20:41:26;6.50;;;3.33;;
78873;SDS011;68250;43.514;1.494;2023-07-28T20:43:52;6.37;;;3.20;;
78873;SDS011;68250;43.514;1.494;2023-07-28T20:46:18;5.75;;;3.60;;
78873;SDS011;68250;43.514;1.494;2023-07-28T20:48:44;6.13;;;3.43;;
78873;SDS011;68250;43.514;1.494;2023-07-28T20:51:10;6.20;;;3.53;;
78873;SDS011;68250;43.514;1.494;2023-07-28T20:53:35;5.20;;;3.40;;
78873;SDS011;68250;43.514;1.494;2023-07-28T20:56:01;8.27;;;3.80;;
78873;SDS011;68250;43.514;1.494;2023-07-28T20:58:26;5.90;;;3.17;;
78873;SDS011;68250;43.514;1.494;2023-07-28T21:00:52;5.97;;;3.23;;
78873;SDS011;68250;43.514;1.494;2023-07-28T21:03:19;5.83;;;3.60;;
78873;SDS011;68250;43.514;1.494;2023-07-28T21:05:45;5.82;;;3.05;;
78873;SDS011;68250;43.514;1.494;2023-07-28T21:08:13;6.65;;;3.33;;
78873;SDS011;68250;43.514;1.494;2023-07-28T21:10:39;6.67;;;3.50;;
78873;SDS011;68250;43.514;1.494;2023-07-28T21:13:05;5.50;;;3.50;;
78873;SDS011;68250;43.514;1.494;2023-07-28T21:15:33;6.10;;;3.42;;
78873;SDS011;68250;43.514;1.494;2023-07-28T21:18:00;6.20;;;3.30;;
78873;SDS011;68250;43.514;1.494;2023-07-28T21:20:26;6.28;;;3.58;;
78873;SDS011;68250;43.514;1.494;2023-07-28T21:22:51;6.00;;;3.60;;
78873;SDS011;68250;43.514;1.494;2023-07-28T21:25:17;6.00;;;3.40;;
78873;SDS011;68250;43.514;1.494;2023-07-28T21:27:43;6.13;;;3.60;;